sensor_id;sensor_type;location;lat;lon;timestamp;temperature;humidity
30037;DHT22;36325;51.512;-0.382;2023-04-24T00:00:05;8.10;99.90
30037;DHT22;36325;51.512;-0.382;2023-04-24T00:02:33;8.10;99.90
30037;DHT22;36325;51.512;-0.382;2023-04-24T00:05:01;8.10;99.90
30037;DHT22;36325;51.512;-0.382;2023-04-24T00:07:29;8.10;99.90
30037;DHT22;36325;51.512;-0.382;2023-04-24T00:09:57;8.10;99.90
30037;DHT22;36325;51.512;-0.382;2023-04-24T00:12:25;8.00;99.90
30037;DHT22;36325;51.512;-0.382;2023-04-24T00:14:53;8.00;99.90
30037;DHT22;36325;51.512;-0.382;2023-04-24T00:17:20;8.00;99.90
30037;DHT22;36325;51.512;-0.382;2023-04-24T00:19:48;8.10;99.90
30037;DHT22;36325;51.512;-0.382;2023-04-24T00:22:18;8.10;99.90
30037;DHT22;36325;51.512;-0.382;2023-04-24T00:24:47;8.20;99.90
30037;DHT22;36325;51.512;-0.382;2023-04-24T00:27:14;8.20;99.90
30037;DHT22;36325;51.512;-0.382;2023-04-24T00:29:41;8.20;99.90
30037;DHT22;36325;51.512;-0.382;2023-04-24T00:32:10;8.20;99.90
30037;DHT22;36325;51.512;-0.382;2023-04-24T00:34:37;8.30;99.90
30037;DHT22;36325;51.512;-0.382;2023-04-24T00:37:05;8.30;99.90
30037;DHT22;36325;51.512;-0.382;2023-04-24T00:42:00;8.30;99.90
30037;DHT22;36325;51.512;-0.382;2023-04-24T00:44:28;8.30;99.90
30037;DHT22;36325;51.512;-0.382;2023-04-24T00:46:56;8.30;99.90
30037;DHT22;36325;51.512;-0.382;2023-04-24T00:49:24;8.40;99.90
30037;DHT22;36325;51.512;-0.382;2023-04-24T00:51:52;8.40;99.90
30037;DHT22;36325;51.512;-0.382;2023-04-24T00:54:20;8.40;99.90
30037;DHT22;36325;51.512;-0.382;2023-04-24T00:56:50;8.50;99.90
30037;DHT22;36325;51.512;-0.382;2023-04-24T00:59:18;8.40;99.90
30037;DHT22;36325;51.512;-0.382;2023-04-24T01:01:45;8.50;99.90
30037;DHT22;36325;51.512;-0.382;2023-04-24T01:06:43;8.40;99.90
30037;DHT22;36325;51.512;-0.382;2023-04-24T01:09:12;8.40;99.90
30037;DHT22;36325;51.512;-0.382;2023-04-24T01:11:41;8.40;99.90
30037;DHT22;36325;51.512;-0.382;2023-04-24T01:14:11;8.30;99.90
30037;DHT22;36325;51.512;-0.382;2023-04-24T01:16:38;8.30;99.90
30037;DHT22;36325;51.512;-0.382;2023-04-24T01:19:06;8.40;99.90
30037;DHT22;36325;51.512;-0.382;2023-04-24T01:21:37;8.30;99.90
30037;DHT22;36325;51.512;-0.382;2023-04-24T01:24:05;8.30;99.90
30037;DHT22;36325;51.512;-0.382;2023-04-24T01:26:33;8.30;99.90
30037;DHT22;36325;51.512;-0.382;2023-04-24T01:29:00;8.30;99.90
30037;DHT22;36325;51.512;-0.382;2023-04-24T01:31:28;8.30;99.90
30037;DHT22;36325;51.512;-0.382;2023-04-24T01:33:57;8.20;99.90
30037;DHT22;36325;51.512;-0.382;2023-04-24T01:36:25;8.10;99.90
30037;DHT22;36325;51.512;-0.382;2023-04-24T01:38:54;8.20;99.90
30037;DHT22;36325;51.512;-0.382;2023-04-24T01:41:21;8.10;99.90
30037;DHT22;36325;51.512;-0.382;2023-04-24T01:43:51;8.00;99.90
30037;DHT22;36325;51.512;-0.382;2023-04-24T01:46:19;7.90;99.90
30037;DHT22;36325;51.512;-0.382;2023-04-24T01:48:47;7.90;99.90
30037;DHT22;36325;51.512;-0.382;2023-04-24T01:51:14;7.80;99.90
30037;DHT22;36325;51.512;-0.382;2023-04-24T01:56:09;7.70;99.90
30037;DHT22;36325;51.512;-0.382;2023-04-24T01:58:37;7.70;99.90
30037;DHT22;36325;51.512;-0.382;2023-04-24T02:01:06;7.60;99.90
30037;DHT22;36325;51.512;-0.382;2023-04-24T02:03:34;7.50;99.90
30037;DHT22;36325;51.512;-0.382;2023-04-24T02:06:01;7.50;99.90
30037;DHT22;36325;51.512;-0.382;2023-04-24T02:08:30;7.50;99.90
30037;DHT22;36325;51.512;-0.382;2023-04-24T02:10:57;7.50;99.90
30037;DHT22;36325;51.512;-0.382;2023-04-24T02:13:27;7.40;99.90
30037;DHT22;36325;51.512;-0.382;2023-04-24T02:15:54;7.40;99.90
30037;DHT22;36325;51.512;-0.382;2023-04-24T02:18:22;7.40;99.90
30037;DHT22;36325;51.512;-0.382;2023-04-24T02:20:50;7.40;99.90
30037;DHT22;36325;51.512;-0.382;2023-04-24T02:23:17;7.30;99.90
30037;DHT22;36325;51.512;-0.382;2023-04-24T02:25:51;6.70;99.90
30037;DHT22;36325;51.512;-0.382;2023-04-24T02:28:29;7.30;99.90
30037;DHT22;36325;51.512;-0.382;2023-04-24T02:31:01;7.40;99.90
30037;DHT22;36325;51.512;-0.382;2023-04-24T02:33:30;7.40;99.90
30037;DHT22;36325;51.512;-0.382;2023-04-24T02:35:57;7.40;99.90
30037;DHT22;36325;51.512;-0.382;2023-04-24T02:38:26;7.40;99.90
30037;DHT22;36325;51.512;-0.382;2023-04-24T02:40:53;7.40;99.90
30037;DHT22;36325;51.512;-0.382;2023-04-24T02:43:21;7.50;99.90
30037;DHT22;36325;51.512;-0.382;2023-04-24T02:45:48;7.50;99.90
30037;DHT22;36325;51.512;-0.382;2023-04-24T02:48:16;7.50;99.90
30037;DHT22;36325;51.512;-0.382;2023-04-24T02:50:44;7.50;99.90
30037;DHT22;36325;51.512;-0.382;2023-04-24T02:53:11;7.50;99.90
30037;DHT22;36325;51.512;-0.382;2023-04-24T02:55:40;7.50;99.90
30037;DHT22;36325;51.512;-0.382;2023-04-24T02:58:07;7.50;99.90
30037;DHT22;36325;51.512;-0.382;2023-04-24T03:00:34;7.60;99.90
30037;DHT22;36325;51.512;-0.382;2023-04-24T03:03:01;7.70;99.90
30037;DHT22;36325;51.512;-0.382;2023-04-24T03:07:57;7.70;99.90
30037;DHT22;36325;51.512;-0.382;2023-04-24T03:10:26;7.80;99.90
30037;DHT22;36325;51.512;-0.382;2023-04-24T03:12:53;7.30;99.90
30037;DHT22;36325;51.512;-0.382;2023-04-24T03:15:22;7.80;99.90
30037;DHT22;36325;51.512;-0.382;2023-04-24T03:20:16;7.90;99.90
30037;DHT22;36325;51.512;-0.382;2023-04-24T03:22:44;7.90;99.90
30037;DHT22;36325;51.512;-0.382;2023-04-24T03:25:11;7.90;99.90
30037;DHT22;36325;51.512;-0.382;2023-04-24T03:27:39;7.90;99.90
30037;DHT22;36325;51.512;-0.382;2023-04-24T03:30:16;7.90;99.90
30037;DHT22;36325;51.512;-0.382;2023-04-24T03:32:50;7.90;99.90
30037;DHT22;36325;51.512;-0.382;2023-04-24T03:35:22;7.90;99.90
30037;DHT22;36325;51.512;-0.382;2023-04-24T03:37:51;7.90;99.90
30037;DHT22;36325;51.512;-0.382;2023-04-24T03:40:37;7.90;99.90
30037;DHT22;36325;51.512;-0.382;2023-04-24T03:43:13;7.90;99.90
30037;DHT22;36325;51.512;-0.382;2023-04-24T03:45:41;7.90;99.90
30037;DHT22;36325;51.512;-0.382;2023-04-24T03:48:09;7.90;99.90
30037;DHT22;36325;51.512;-0.382;2023-04-24T03:50:37;7.90;99.90
30037;DHT22;36325;51.512;-0.382;2023-04-24T03:53:06;7.90;99.90
30037;DHT22;36325;51.512;-0.382;2023-04-24T03:55:38;7.90;99.90
30037;DHT22;36325;51.512;-0.382;2023-04-24T03:58:05;8.00;99.90
30037;DHT22;36325;51.512;-0.382;2023-04-24T04:00:33;8.00;99.90
30037;DHT22;36325;51.512;-0.382;2023-04-24T04:03:21;8.00;99.90
30037;DHT22;36325;51.512;-0.382;2023-04-24T04:05:49;7.90;99.90
30037;DHT22;36325;51.512;-0.382;2023-04-24T04:08:16;8.00;99.90
30037;DHT22;36325;51.512;-0.382;2023-04-24T04:10:44;8.00;99.90
30037;DHT22;36325;51.512;-0.382;2023-04-24T04:13:14;8.00;99.90
30037;DHT22;36325;51.512;-0.382;2023-04-24T04:18:09;8.00;99.90
30037;DHT22;36325;51.512;-0.382;2023-04-24T04:20:36;8.00;99.90
30037;DHT22;36325;51.512;-0.382;2023-04-24T04:23:03;8.00;99.90
30037;DHT22;36325;51.512;-0.382;2023-04-24T04:25:44;8.00;99.90
30037;DHT22;36325;51.512;-0.382;2023-04-24T04:28:11;8.00;99.90
30037;DHT22;36325;51.512;-0.382;2023-04-24T04:30:38;8.00;99.90
30037;DHT22;36325;51.512;-0.382;2023-04-24T04:33:07;8.00;99.90
30037;DHT22;36325;51.512;-0.382;2023-04-24T04:35:35;8.00;99.90
30037;DHT22;36325;51.512;-0.382;2023-04-24T04:38:04;8.00;99.90
30037;DHT22;36325;51.512;-0.382;2023-04-24T04:40:50;8.00;99.90
30037;DHT22;36325;51.512;-0.382;2023-04-24T04:43:19;8.00;99.90
30037;DHT22;36325;51.512;-0.382;2023-04-24T04:45:52;8.10;99.90
30037;DHT22;36325;51.512;-0.382;2023-04-24T04:48:42;8.10;99.90
30037;DHT22;36325;51.512;-0.382;2023-04-24T04:51:10;7.90;99.90
30037;DHT22;36325;51.512;-0.382;2023-04-24T04:53:37;8.10;99.90
30037;DHT22;36325;51.512;-0.382;2023-04-24T04:56:05;8.10;99.90
30037;DHT22;36325;51.512;-0.382;2023-04-24T04:58:37;7.10;99.90
30037;DHT22;36325;51.512;-0.382;2023-04-24T05:01:08;8.10;99.90
30037;DHT22;36325;51.512;-0.382;2023-04-24T05:03:40;8.10;99.90
30037;DHT22;36325;51.512;-0.382;2023-04-24T05:06:10;8.10;99.90
30037;DHT22;36325;51.512;-0.382;2023-04-24T05:08:39;8.20;99.90
30037;DHT22;36325;51.512;-0.382;2023-04-24T05:11:12;8.20;99.90
30037;DHT22;36325;51.512;-0.382;2023-04-24T05:13:40;8.20;99.90
30037;DHT22;36325;51.512;-0.382;2023-04-24T05:16:13;8.20;99.90
30037;DHT22;36325;51.512;-0.382;2023-04-24T05:18:42;8.20;99.90
30037;DHT22;36325;51.512;-0.382;2023-04-24T05:21:13;8.30;99.90
30037;DHT22;36325;51.512;-0.382;2023-04-24T05:23:43;8.30;99.90
30037;DHT22;36325;51.512;-0.382;2023-04-24T05:26:14;8.30;99.90
30037;DHT22;36325;51.512;-0.382;2023-04-24T05:28:43;8.30;99.90
30037;DHT22;36325;51.512;-0.382;2023-04-24T05:31:12;8.30;99.90
30037;DHT22;36325;51.512;-0.382;2023-04-24T05:33:40;8.30;99.90
30037;DHT22;36325;51.512;-0.382;2023-04-24T05:36:07;8.40;99.90
30037;DHT22;36325;51.512;-0.382;2023-04-24T05:41:04;8.50;99.90
30037;DHT22;36325;51.512;-0.382;2023-04-24T05:43:31;8.50;99.90
30037;DHT22;36325;51.512;-0.382;2023-04-24T05:45:59;8.50;99.90
30037;DHT22;36325;51.512;-0.382;2023-04-24T05:50:54;8.50;99.90
30037;DHT22;36325;51.512;-0.382;2023-04-24T05:53:23;8.50;99.90
30037;DHT22;36325;51.512;-0.382;2023-04-24T05:55:50;8.60;99.90
30037;DHT22;36325;51.512;-0.382;2023-04-24T05:58:18;8.60;99.90
30037;DHT22;36325;51.512;-0.382;2023-04-24T06:00:47;8.60;99.90
30037;DHT22;36325;51.512;-0.382;2023-04-24T06:03:15;8.70;99.90
30037;DHT22;36325;51.512;-0.382;2023-04-24T06:05:42;8.70;99.90
30037;DHT22;36325;51.512;-0.382;2023-04-24T06:08:10;8.70;99.90
30037;DHT22;36325;51.512;-0.382;2023-04-24T06:10:39;8.80;99.90
30037;DHT22;36325;51.512;-0.382;2023-04-24T06:15:40;8.80;99.90
30037;DHT22;36325;51.512;-0.382;2023-04-24T06:18:16;8.80;99.90
30037;DHT22;36325;51.512;-0.382;2023-04-24T06:20:43;8.80;99.90
30037;DHT22;36325;51.512;-0.382;2023-04-24T06:23:10;8.80;99.90
30037;DHT22;36325;51.512;-0.382;2023-04-24T06:25:38;8.70;99.90
30037;DHT22;36325;51.512;-0.382;2023-04-24T06:28:05;8.70;99.90
30037;DHT22;36325;51.512;-0.382;2023-04-24T06:30:33;8.70;99.90
30037;DHT22;36325;51.512;-0.382;2023-04-24T06:33:00;8.70;99.90
30037;DHT22;36325;51.512;-0.382;2023-04-24T06:35:39;8.70;99.90
30037;DHT22;36325;51.512;-0.382;2023-04-24T06:38:06;8.70;99.90
30037;DHT22;36325;51.512;-0.382;2023-04-24T06:40:33;8.70;99.90
30037;DHT22;36325;51.512;-0.382;2023-04-24T06:45:29;8.60;99.90
30037;DHT22;36325;51.512;-0.382;2023-04-24T06:47:57;8.70;99.90
30037;DHT22;36325;51.512;-0.382;2023-04-24T06:50:25;8.70;99.90
30037;DHT22;36325;51.512;-0.382;2023-04-24T06:52:52;8.70;99.90
30037;DHT22;36325;51.512;-0.382;2023-04-24T06:55:19;8.70;99.90
30037;DHT22;36325;51.512;-0.382;2023-04-24T06:57:46;8.80;99.90
30037;DHT22;36325;51.512;-0.382;2023-04-24T07:00:14;8.80;99.90
30037;DHT22;36325;51.512;-0.382;2023-04-24T07:02:41;8.90;99.90
30037;DHT22;36325;51.512;-0.382;2023-04-24T07:07:37;8.90;99.90
30037;DHT22;36325;51.512;-0.382;2023-04-24T07:10:07;9.00;99.90
30037;DHT22;36325;51.512;-0.382;2023-04-24T07:12:35;9.10;99.90
30037;DHT22;36325;51.512;-0.382;2023-04-24T07:15:03;9.20;99.90
30037;DHT22;36325;51.512;-0.382;2023-04-24T07:17:30;9.20;99.90
30037;DHT22;36325;51.512;-0.382;2023-04-24T07:19:57;9.30;99.90
30037;DHT22;36325;51.512;-0.382;2023-04-24T07:22:27;9.30;99.90
30037;DHT22;36325;51.512;-0.382;2023-04-24T07:27:22;9.50;99.90
30037;DHT22;36325;51.512;-0.382;2023-04-24T07:29:49;9.60;99.90
30037;DHT22;36325;51.512;-0.382;2023-04-24T07:32:17;9.80;99.90
30037;DHT22;36325;51.512;-0.382;2023-04-24T07:34:44;9.90;99.90
30037;DHT22;36325;51.512;-0.382;2023-04-24T07:37:11;10.10;99.90
30037;DHT22;36325;51.512;-0.382;2023-04-24T07:42:06;10.40;99.90
30037;DHT22;36325;51.512;-0.382;2023-04-24T07:44:33;10.60;99.90
30037;DHT22;36325;51.512;-0.382;2023-04-24T07:47:01;11.60;99.90
30037;DHT22;36325;51.512;-0.382;2023-04-24T07:49:29;11.10;99.90
30037;DHT22;36325;51.512;-0.382;2023-04-24T07:51:57;11.40;99.90
30037;DHT22;36325;51.512;-0.382;2023-04-24T07:54:27;11.70;99.90
30037;DHT22;36325;51.512;-0.382;2023-04-24T07:56:56;12.00;99.90
30037;DHT22;36325;51.512;-0.382;2023-04-24T07:59:23;12.20;99.90
30037;DHT22;36325;51.512;-0.382;2023-04-24T08:01:51;12.50;99.90
30037;DHT22;36325;51.512;-0.382;2023-04-24T08:04:18;12.70;99.90
30037;DHT22;36325;51.512;-0.382;2023-04-24T08:06:47;12.90;99.90
30037;DHT22;36325;51.512;-0.382;2023-04-24T08:09:14;13.10;99.90
30037;DHT22;36325;51.512;-0.382;2023-04-24T08:11:41;13.30;99.90
30037;DHT22;36325;51.512;-0.382;2023-04-24T08:14:09;13.40;99.90
30037;DHT22;36325;51.512;-0.382;2023-04-24T08:16:36;13.50;99.90
30037;DHT22;36325;51.512;-0.382;2023-04-24T08:19:03;13.60;99.90
30037;DHT22;36325;51.512;-0.382;2023-04-24T08:21:31;13.60;99.90
30037;DHT22;36325;51.512;-0.382;2023-04-24T08:23:59;13.60;99.90
30037;DHT22;36325;51.512;-0.382;2023-04-24T08:26:26;13.70;99.90
30037;DHT22;36325;51.512;-0.382;2023-04-24T08:28:53;13.90;99.90
30037;DHT22;36325;51.512;-0.382;2023-04-24T08:31:21;14.20;99.90
30037;DHT22;36325;51.512;-0.382;2023-04-24T08:33:49;14.40;99.90
30037;DHT22;36325;51.512;-0.382;2023-04-24T08:36:16;14.40;99.90
30037;DHT22;36325;51.512;-0.382;2023-04-24T08:38:44;14.30;99.90
30037;DHT22;36325;51.512;-0.382;2023-04-24T08:41:14;14.40;99.90
30037;DHT22;36325;51.512;-0.382;2023-04-24T08:43:43;14.70;99.90
30037;DHT22;36325;51.512;-0.382;2023-04-24T08:46:13;14.80;99.90
30037;DHT22;36325;51.512;-0.382;2023-04-24T08:48:42;14.70;99.90
30037;DHT22;36325;51.512;-0.382;2023-04-24T08:51:09;14.50;99.90
30037;DHT22;36325;51.512;-0.382;2023-04-24T08:53:38;14.50;99.90
30037;DHT22;36325;51.512;-0.382;2023-04-24T08:56:06;14.50;99.90
30037;DHT22;36325;51.512;-0.382;2023-04-24T08:58:35;14.80;99.90
30037;DHT22;36325;51.512;-0.382;2023-04-24T09:01:02;15.00;99.90
30037;DHT22;36325;51.512;-0.382;2023-04-24T09:03:30;15.20;99.90
30037;DHT22;36325;51.512;-0.382;2023-04-24T09:05:59;15.30;99.90
30037;DHT22;36325;51.512;-0.382;2023-04-24T09:08:28;15.70;99.90
30037;DHT22;36325;51.512;-0.382;2023-04-24T09:10:56;16.10;99.90
30037;DHT22;36325;51.512;-0.382;2023-04-24T09:13:25;16.30;99.90
30037;DHT22;36325;51.512;-0.382;2023-04-24T09:15:53;16.20;99.90
30037;DHT22;36325;51.512;-0.382;2023-04-24T09:18:21;16.00;99.90
30037;DHT22;36325;51.512;-0.382;2023-04-24T09:21:06;15.80;99.90
30037;DHT22;36325;51.512;-0.382;2023-04-24T09:23:34;15.60;99.90
30037;DHT22;36325;51.512;-0.382;2023-04-24T09:26:03;15.40;99.90
30037;DHT22;36325;51.512;-0.382;2023-04-24T09:28:32;15.30;99.90
30037;DHT22;36325;51.512;-0.382;2023-04-24T09:31:21;15.20;99.90
30037;DHT22;36325;51.512;-0.382;2023-04-24T09:36:31;15.10;99.90
30037;DHT22;36325;51.512;-0.382;2023-04-24T09:39:02;15.00;99.90
30037;DHT22;36325;51.512;-0.382;2023-04-24T09:41:31;14.90;99.90
30037;DHT22;36325;51.512;-0.382;2023-04-24T09:44:12;14.90;99.90
30037;DHT22;36325;51.512;-0.382;2023-04-24T09:46:42;14.70;99.90
30037;DHT22;36325;51.512;-0.382;2023-04-24T09:49:14;14.60;99.90
30037;DHT22;36325;51.512;-0.382;2023-04-24T09:51:44;14.50;99.90
30037;DHT22;36325;51.512;-0.382;2023-04-24T09:54:19;14.20;99.90
30037;DHT22;36325;51.512;-0.382;2023-04-24T09:56:50;14.10;99.90
30037;DHT22;36325;51.512;-0.382;2023-04-24T09:59:19;14.10;99.90
30037;DHT22;36325;51.512;-0.382;2023-04-24T10:01:46;14.10;99.90
30037;DHT22;36325;51.512;-0.382;2023-04-24T10:04:20;14.10;99.90
30037;DHT22;36325;51.512;-0.382;2023-04-24T10:06:49;14.30;99.90
30037;DHT22;36325;51.512;-0.382;2023-04-24T10:09:19;14.30;99.90
30037;DHT22;36325;51.512;-0.382;2023-04-24T10:11:49;14.50;99.90
30037;DHT22;36325;51.512;-0.382;2023-04-24T10:14:20;14.60;99.90
30037;DHT22;36325;51.512;-0.382;2023-04-24T10:16:48;14.70;99.90
30037;DHT22;36325;51.512;-0.382;2023-04-24T10:19:16;15.00;99.90
30037;DHT22;36325;51.512;-0.382;2023-04-24T10:21:49;15.50;99.90
30037;DHT22;36325;51.512;-0.382;2023-04-24T10:24:17;15.40;99.90
30037;DHT22;36325;51.512;-0.382;2023-04-24T10:26:46;15.70;99.90
30037;DHT22;36325;51.512;-0.382;2023-04-24T10:29:17;15.90;99.90
30037;DHT22;36325;51.512;-0.382;2023-04-24T10:31:45;16.10;99.90
30037;DHT22;36325;51.512;-0.382;2023-04-24T10:34:15;16.20;99.90
30037;DHT22;36325;51.512;-0.382;2023-04-24T10:36:50;16.70;99.90
30037;DHT22;36325;51.512;-0.382;2023-04-24T10:39:18;17.60;99.90
30037;DHT22;36325;51.512;-0.382;2023-04-24T10:41:54;18.10;99.90
30037;DHT22;36325;51.512;-0.382;2023-04-24T10:44:24;18.70;99.90
30037;DHT22;36325;51.512;-0.382;2023-04-24T10:46:55;19.60;99.90
30037;DHT22;36325;51.512;-0.382;2023-04-24T10:49:31;19.80;99.90
30037;DHT22;36325;51.512;-0.382;2023-04-24T10:52:04;20.10;99.90
30037;DHT22;36325;51.512;-0.382;2023-04-24T10:54:45;20.40;99.90
30037;DHT22;36325;51.512;-0.382;2023-04-24T10:59:52;20.20;99.90
30037;DHT22;36325;51.512;-0.382;2023-04-24T11:02:37;20.00;99.90
30037;DHT22;36325;51.512;-0.382;2023-04-24T11:05:06;19.80;99.90
30037;DHT22;36325;51.512;-0.382;2023-04-24T11:08:15;19.40;99.90
30037;DHT22;36325;51.512;-0.382;2023-04-24T11:10:44;19.20;99.90
30037;DHT22;36325;51.512;-0.382;2023-04-24T11:13:21;19.10;99.90
30037;DHT22;36325;51.512;-0.382;2023-04-24T11:18:42;18.80;99.90
30037;DHT22;36325;51.512;-0.382;2023-04-24T11:21:13;18.90;99.90
30037;DHT22;36325;51.512;-0.382;2023-04-24T11:23:45;19.80;99.90
30037;DHT22;36325;51.512;-0.382;2023-04-24T11:26:23;20.60;99.90
30037;DHT22;36325;51.512;-0.382;2023-04-24T11:29:08;21.90;99.90
30037;DHT22;36325;51.512;-0.382;2023-04-24T11:34:13;21.20;99.90
30037;DHT22;36325;51.512;-0.382;2023-04-24T11:36:45;20.50;99.90
30037;DHT22;36325;51.512;-0.382;2023-04-24T11:39:13;19.90;99.90
30037;DHT22;36325;51.512;-0.382;2023-04-24T11:41:41;19.50;99.90
30037;DHT22;36325;51.512;-0.382;2023-04-24T11:44:09;19.30;99.90
30037;DHT22;36325;51.512;-0.382;2023-04-24T11:46:38;19.30;99.90
30037;DHT22;36325;51.512;-0.382;2023-04-24T11:49:07;19.30;99.90
30037;DHT22;36325;51.512;-0.382;2023-04-24T11:51:34;19.70;99.90
30037;DHT22;36325;51.512;-0.382;2023-04-24T11:54:13;20.30;99.90
30037;DHT22;36325;51.512;-0.382;2023-04-24T11:56:46;20.50;99.90
30037;DHT22;36325;51.512;-0.382;2023-04-24T11:59:14;20.20;99.90
30037;DHT22;36325;51.512;-0.382;2023-04-24T12:01:48;19.70;99.90
30037;DHT22;36325;51.512;-0.382;2023-04-24T12:04:17;19.60;99.90
30037;DHT22;36325;51.512;-0.382;2023-04-24T12:07:04;19.60;99.90
30037;DHT22;36325;51.512;-0.382;2023-04-24T12:09:46;20.90;99.90
30037;DHT22;36325;51.512;-0.382;2023-04-24T12:12:17;21.00;99.90
30037;DHT22;36325;51.512;-0.382;2023-04-24T12:14:48;21.40;99.90
30037;DHT22;36325;51.512;-0.382;2023-04-24T12:17:17;21.60;99.90
30037;DHT22;36325;51.512;-0.382;2023-04-24T12:19:48;21.80;99.90
30037;DHT22;36325;51.512;-0.382;2023-04-24T12:22:15;21.80;99.90
30037;DHT22;36325;51.512;-0.382;2023-04-24T12:25:03;21.50;99.90
30037;DHT22;36325;51.512;-0.382;2023-04-24T12:27:32;21.20;99.90
30037;DHT22;36325;51.512;-0.382;2023-04-24T12:30:05;20.90;99.90
30037;DHT22;36325;51.512;-0.382;2023-04-24T12:32:32;20.90;99.90
30037;DHT22;36325;51.512;-0.382;2023-04-24T12:35:00;21.30;99.90
30037;DHT22;36325;51.512;-0.382;2023-04-24T12:37:33;21.30;99.90
30037;DHT22;36325;51.512;-0.382;2023-04-24T12:40:06;21.70;99.90
30037;DHT22;36325;51.512;-0.382;2023-04-24T12:42:35;21.90;99.90
30037;DHT22;36325;51.512;-0.382;2023-04-24T12:45:04;22.00;99.90
30037;DHT22;36325;51.512;-0.382;2023-04-24T12:47:33;22.30;99.90
30037;DHT22;36325;51.512;-0.382;2023-04-24T12:50:01;23.20;99.90
30037;DHT22;36325;51.512;-0.382;2023-04-24T12:52:30;23.10;99.90
30037;DHT22;36325;51.512;-0.382;2023-04-24T12:54:59;23.20;99.90
30037;DHT22;36325;51.512;-0.382;2023-04-24T12:57:28;23.70;99.90
30037;DHT22;36325;51.512;-0.382;2023-04-24T12:59:57;23.70;99.90
30037;DHT22;36325;51.512;-0.382;2023-04-24T13:02:28;23.80;99.90
30037;DHT22;36325;51.512;-0.382;2023-04-24T13:04:59;24.50;99.90
30037;DHT22;36325;51.512;-0.382;2023-04-24T13:07:27;24.90;99.90
30037;DHT22;36325;51.512;-0.382;2023-04-24T13:09:55;25.80;99.90
30037;DHT22;36325;51.512;-0.382;2023-04-24T13:12:22;26.40;99.90
30037;DHT22;36325;51.512;-0.382;2023-04-24T13:14:51;26.90;99.90
30037;DHT22;36325;51.512;-0.382;2023-04-24T13:17:18;27.40;99.90
30037;DHT22;36325;51.512;-0.382;2023-04-24T13:19:45;27.90;99.90
30037;DHT22;36325;51.512;-0.382;2023-04-24T13:22:13;28.30;99.90
30037;DHT22;36325;51.512;-0.382;2023-04-24T13:24:40;28.60;99.90
30037;DHT22;36325;51.512;-0.382;2023-04-24T13:27:08;28.30;99.10
30037;DHT22;36325;51.512;-0.382;2023-04-24T13:29:36;28.40;98.90
30037;DHT22;36325;51.512;-0.382;2023-04-24T13:32:03;28.90;98.00
30037;DHT22;36325;51.512;-0.382;2023-04-24T13:34:32;28.00;96.20
30037;DHT22;36325;51.512;-0.382;2023-04-24T13:37:07;27.80;97.00
30037;DHT22;36325;51.512;-0.382;2023-04-24T13:39:39;27.20;97.10
30037;DHT22;36325;51.512;-0.382;2023-04-24T13:42:06;26.10;97.10
30037;DHT22;36325;51.512;-0.382;2023-04-24T13:44:33;25.50;97.40
30037;DHT22;36325;51.512;-0.382;2023-04-24T13:47:03;25.30;97.60
30037;DHT22;36325;51.512;-0.382;2023-04-24T13:49:30;25.70;97.40
30037;DHT22;36325;51.512;-0.382;2023-04-24T13:51:58;25.70;97.00
30037;DHT22;36325;51.512;-0.382;2023-04-24T13:54:25;25.10;96.90
30037;DHT22;36325;51.512;-0.382;2023-04-24T13:56:53;24.40;97.10
30037;DHT22;36325;51.512;-0.382;2023-04-24T13:59:21;23.40;97.30
30037;DHT22;36325;51.512;-0.382;2023-04-24T14:01:48;22.60;98.20
30037;DHT22;36325;51.512;-0.382;2023-04-24T14:04:16;22.20;98.70
30037;DHT22;36325;51.512;-0.382;2023-04-24T14:06:43;21.50;98.90
30037;DHT22;36325;51.512;-0.382;2023-04-24T14:09:13;21.50;99.30
30037;DHT22;36325;51.512;-0.382;2023-04-24T14:11:40;21.00;99.70
30037;DHT22;36325;51.512;-0.382;2023-04-24T14:14:08;20.90;99.90
30037;DHT22;36325;51.512;-0.382;2023-04-24T14:16:35;20.70;99.90
30037;DHT22;36325;51.512;-0.382;2023-04-24T14:19:03;20.30;99.90
30037;DHT22;36325;51.512;-0.382;2023-04-24T14:21:32;20.00;99.90
30037;DHT22;36325;51.512;-0.382;2023-04-24T14:24:00;19.60;99.90
30037;DHT22;36325;51.512;-0.382;2023-04-24T14:28:54;19.00;99.90
30037;DHT22;36325;51.512;-0.382;2023-04-24T14:31:33;18.70;99.90
30037;DHT22;36325;51.512;-0.382;2023-04-24T14:34:00;18.50;99.90
30037;DHT22;36325;51.512;-0.382;2023-04-24T14:36:27;18.40;99.90
30037;DHT22;36325;51.512;-0.382;2023-04-24T14:38:54;17.70;99.90
30037;DHT22;36325;51.512;-0.382;2023-04-24T14:41:21;17.70;99.90
30037;DHT22;36325;51.512;-0.382;2023-04-24T14:43:48;17.20;99.90
30037;DHT22;36325;51.512;-0.382;2023-04-24T14:46:16;16.50;99.90
30037;DHT22;36325;51.512;-0.382;2023-04-24T14:48:43;16.50;99.90
30037;DHT22;36325;51.512;-0.382;2023-04-24T14:51:11;16.10;99.90
30037;DHT22;36325;51.512;-0.382;2023-04-24T14:53:38;15.80;99.90
30037;DHT22;36325;51.512;-0.382;2023-04-24T14:56:05;15.60;99.90
30037;DHT22;36325;51.512;-0.382;2023-04-24T14:58:33;15.40;99.90
30037;DHT22;36325;51.512;-0.382;2023-04-24T15:01:00;15.30;99.90
30037;DHT22;36325;51.512;-0.382;2023-04-24T15:03:27;15.20;99.90
30037;DHT22;36325;51.512;-0.382;2023-04-24T15:05:55;13.80;99.90
30037;DHT22;36325;51.512;-0.382;2023-04-24T15:08:22;13.60;99.90
30037;DHT22;36325;51.512;-0.382;2023-04-24T15:10:49;12.90;99.90
30037;DHT22;36325;51.512;-0.382;2023-04-24T15:15:46;11.60;99.90
30037;DHT22;36325;51.512;-0.382;2023-04-24T15:18:14;11.00;99.90
30037;DHT22;36325;51.512;-0.382;2023-04-24T15:20:41;10.60;99.90
30037;DHT22;36325;51.512;-0.382;2023-04-24T15:25:37;10.00;99.90
30037;DHT22;36325;51.512;-0.382;2023-04-24T15:28:05;10.00;99.90
30037;DHT22;36325;51.512;-0.382;2023-04-24T15:30:32;9.90;99.90
30037;DHT22;36325;51.512;-0.382;2023-04-24T15:33:00;9.90;99.90
30037;DHT22;36325;51.512;-0.382;2023-04-24T15:35:28;9.90;99.90
30037;DHT22;36325;51.512;-0.382;2023-04-24T15:37:56;9.80;99.90
30037;DHT22;36325;51.512;-0.382;2023-04-24T15:42:50;9.70;99.90
30037;DHT22;36325;51.512;-0.382;2023-04-24T15:45:18;9.60;99.90
30037;DHT22;36325;51.512;-0.382;2023-04-24T15:47:45;9.50;99.90
30037;DHT22;36325;51.512;-0.382;2023-04-24T15:50:15;9.60;99.90
30037;DHT22;36325;51.512;-0.382;2023-04-24T15:52:43;9.60;99.90
30037;DHT22;36325;51.512;-0.382;2023-04-24T15:55:11;9.60;99.90
30037;DHT22;36325;51.512;-0.382;2023-04-24T15:57:39;9.60;99.90
30037;DHT22;36325;51.512;-0.382;2023-04-24T16:00:06;9.60;99.90
30037;DHT22;36325;51.512;-0.382;2023-04-24T16:02:38;9.60;99.90
30037;DHT22;36325;51.512;-0.382;2023-04-24T16:05:06;9.60;99.90
30037;DHT22;36325;51.512;-0.382;2023-04-24T16:07:34;9.50;99.90
30037;DHT22;36325;51.512;-0.382;2023-04-24T16:10:01;9.50;99.90
30037;DHT22;36325;51.512;-0.382;2023-04-24T16:14:55;9.50;99.90
30037;DHT22;36325;51.512;-0.382;2023-04-24T16:17:23;9.50;99.90
30037;DHT22;36325;51.512;-0.382;2023-04-24T16:19:50;9.50;99.90
30037;DHT22;36325;51.512;-0.382;2023-04-24T16:22:17;9.50;99.90
30037;DHT22;36325;51.512;-0.382;2023-04-24T16:24:44;9.60;99.90
30037;DHT22;36325;51.512;-0.382;2023-04-24T16:27:14;9.60;99.90
30037;DHT22;36325;51.512;-0.382;2023-04-24T16:29:41;9.60;99.90